Time;durP1;ratioP1;P1;durP2;ratioP2;P2;SDS_P1;SDS_P2;PMS_P1;PMS_P2;Temp;Humidity;BMP_temperature;BMP_pressure;BME280_temperature;BME280_humidity;BME280_pressure;Samples;Min_cycle;Max_cycle;Signal;HPM_P1;HPM_P2
2020/12/19 00:00:55;;;;;;;42.47;26.40;;;22.50;36.00;;;;;;6175143;28;83548;-54
2020/12/19 00:03:55;;;;;;;44.60;27.42;;;22.50;36.00;;;;;;6169794;28;83836;-55
2020/12/19 00:06:56;;;;;;;39.35;25.63;;;22.50;35.90;;;;;;6171162;27;83267;-55
2020/12/19 00:09:56;;;;;;;46.55;27.30;;;22.40;35.70;;;;;;6180423;28;83342;-55
2020/12/19 00:13:00;;;;;;;43.72;27.23;;;22.50;35.90;;;;;;6188556;27;84141;-55
2020/12/19 00:16:01;;;;;;;46.60;28.38;;;22.40;35.60;;;;;;6165901;28;83551;-53
2020/12/19 00:19:05;;;;;;;43.45;27.23;;;22.40;35.70;;;;;;6167059;28;83410;-55
2020/12/19 00:22:06;;;;;;;44.13;26.70;;;22.40;35.50;;;;;;6173268;28;83157;-53
2020/12/19 00:25:06;;;;;;;43.33;27.73;;;22.40;36.20;;;;;;6147939;28;83183;-55
2020/12/19 00:28:07;;;;;;;42.97;27.55;;;22.40;35.50;;;;;;6171628;28;83897;-54
2020/12/19 00:31:07;;;;;;;46.85;29.08;;;22.40;35.30;;;;;;6161412;27;84301;-53
2020/12/19 00:34:08;;;;;;;49.38;30.25;;;22.40;35.10;;;;;;6176657;28;83034;-53
2020/12/19 00:37:08;;;;;;;48.22;29.25;;;22.40;35.00;;;;;;6165438;28;85123;-53
2020/12/19 00:40:09;;;;;;;50.28;29.83;;;22.40;35.00;;;;;;6174542;28;84013;-55
2020/12/19 00:43:09;;;;;;;47.88;30.27;;;22.40;34.80;;;;;;6175981;28;84237;-53
2020/12/19 00:46:10;;;;;;;51.67;29.75;;;22.40;34.70;;;;;;6183668;28;84099;-53
2020/12/19 00:49:10;;;;;;;47.08;29.80;;;22.40;34.80;;;;;;6185562;27;83528;-52
2020/12/19 00:52:11;;;;;;;51.90;31.20;;;22.40;34.70;;;;;;6172933;28;83461;-55
2020/12/19 00:55:11;;;;;;;52.40;31.88;;;22.30;34.70;;;;;;6177330;27;83403;-56
2020/12/19 00:58:12;;;;;;;48.25;30.85;;;22.30;34.70;;;;;;6174230;28;83423;-55
2020/12/19 01:01:12;;;;;;;51.55;32.15;;;22.30;34.70;;;;;;6177098;27;83896;-52
2020/12/19 01:04:13;;;;;;;50.17;31.88;;;22.30;34.60;;;;;;6176447;28;82886;-52
2020/12/19 01:07:14;;;;;;;55.42;33.97;;;22.30;34.60;;;;;;6174688;28;83671;-53
2020/12/19 01:10:14;;;;;;;52.03;32.05;;;22.30;34.40;;;;;;6176855;28;83022;-54
2020/12/19 01:13:15;;;;;;;55.28;33.70;;;22.30;34.40;;;;;;6169419;28;83503;-50
2020/12/19 01:16:15;;;;;;;55.47;32.88;;;22.30;34.50;;;;;;6176692;28;83117;-53
2020/12/19 01:19:16;;;;;;;55.90;34.70;;;22.30;34.50;;;;;;6177497;27;83194;-56
2020/12/19 01:22:16;;;;;;;52.70;33.08;;;22.30;34.60;;;;;;6156873;28;83641;-53
2020/12/19 01:25:17;;;;;;;56.80;34.75;;;22.30;34.80;;;;;;6144751;28;84049;-54
2020/12/19 01:28:17;;;;;;;57.83;34.65;;;22.30;34.80;;;;;;6152686;28;84272;-51
2020/12/19 01:31:18;;;;;;;55.83;34.22;;;22.20;34.70;;;;;;6143180;28;83226;-51
2020/12/19 01:34:19;;;;;;;60.03;35.97;;;22.20;34.70;;;;;;6169965;27;89618;-50
2020/12/19 01:37:19;;;;;;;62.17;36.65;;;22.20;34.70;;;;;;6163218;28;83465;-52
2020/12/19 01:40:20;;;;;;;59.30;35.20;;;22.20;34.70;;;;;;6174671;27;83917;-49
2020/12/19 01:43:20;;;;;;;59.50;33.75;;;22.20;34.80;;;;;;6175975;28;83593;-54
2020/12/19 01:46:21;;;;;;;65.00;36.33;;;22.20;34.90;;;;;;6175415;27;83278;-54
2020/12/19 01:49:21;;;;;;;59.53;35.83;;;22.20;34.60;;;;;;6170076;28;83601;-52
2020/12/19 01:52:22;;;;;;;57.25;35.30;;;22.20;34.80;;;;;;6177183;28;84001;-54
2020/12/19 01:55:22;;;;;;;63.10;36.25;;;22.20;34.60;;;;;;6176166;28;82843;-53
2020/12/19 01:58:23;;;;;;;62.97;36.90;;;22.20;34.60;;;;;;6176698;27;85071;-54
2020/12/19 02:01:23;;;;;;;61.15;36.45;;;22.20;34.60;;;;;;6175721;28;84296;-50
2020/12/19 02:04:24;;;;;;;63.78;37.67;;;22.20;34.40;;;;;;6175660;27;84202;-50
2020/12/19 02:07:24;;;;;;;59.63;35.97;;;22.20;34.50;;;;;;6176457;28;83636;-55
2020/12/19 02:10:25;;;;;;;62.53;37.42;;;22.20;34.40;;;;;;6176113;27;83758;-54
2020/12/19 02:13:25;;;;;;;62.97;37.38;;;22.20;34.30;;;;;;6176133;28;83055;-56
2020/12/19 02:16:26;;;;;;;63.67;36.22;;;22.20;34.20;;;;;;6176898;28;83933;-56
2020/12/19 02:19:26;;;;;;;60.58;35.58;;;22.10;34.20;;;;;;6173679;28;85736;-53
2020/12/19 02:22:27;;;;;;;56.78;35.50;;;22.20;34.30;;;;;;6175185;27;84279;-54
2020/12/19 02:25:27;;;;;;;63.20;36.80;;;22.20;34.60;;;;;;6162505;28;83591;-54
2020/12/19 02:28:28;;;;;;;60.60;35.88;;;22.20;34.70;;;;;;6176449;27;83110;-53
2020/12/19 02:31:28;;;;;;;55.47;34.45;;;22.10;34.80;;;;;;6174329;28;89287;-57
2020/12/19 02:34:29;;;;;;;58.17;34.03;;;22.20;34.90;;;;;;6162193;28;84819;-52
2020/12/19 02:37:29;;;;;;;58.72;34.90;;;22.20;35.10;;;;;;6174639;28;83502;-54
2020/12/19 02:40:30;;;;;;;60.38;35.35;;;22.20;35.00;;;;;;6174685;28;83297;-51
2020/12/19 02:43:30;;;;;;;59.40;34.55;;;22.10;34.80;;;;;;6174438;28;83323;-54
2020/12/19 02:46:31;;;;;;;61.13;34.50;;;22.20;35.10;;;;;;6174230;27;83382;-55
2020/12/19 02:49:32;;;;;;;58.42;33.25;;;22.20;35.00;;;;;;6173979;28;83169;-53
2020/12/19 02:52:32;;;;;;;56.22;34.47;;;22.20;35.20;;;;;;6175706;27;83211;-56
2020/12/19 02:55:33;;;;;;;59.85;35.00;;;22.10;35.20;;;;;;6175403;28;83427;-54
2020/12/19 02:58:33;;;;;;;57.17;33.35;;;22.10;35.10;;;;;;6174180;28;83475;-52
2020/12/19 03:01:34;;;;;;;61.78;35.80;;;22.20;35.30;;;;;;6175801;28;83265;-54
2020/12/19 03:04:34;;;;;;;60.38;33.95;;;22.10;35.30;;;;;;6148373;27;83591;-53
2020/12/19 03:07:35;;;;;;;61.58;34.55;;;22.10;35.20;;;;;;6171532;28;83377;-54
2020/12/19 03:10:35;;;;;;;62.80;35.20;;;22.10;35.20;;;;;;6164297;27;83014;-55
2020/12/19 03:13:36;;;;;;;60.03;35.03;;;22.10;35.30;;;;;;6176714;28;83603;-55
2020/12/19 03:16:36;;;;;;;62.85;35.00;;;22.10;35.20;;;;;;6166576;28;83860;-54
2020/12/19 03:19:37;;;;;;;62.83;34.78;;;22.10;35.10;;;;;;6174156;27;83309;-55
2020/12/19 03:22:37;;;;;;;60.17;34.38;;;22.10;35.10;;;;;;6175006;28;83896;-54
2020/12/19 03:25:38;;;;;;;57.33;34.67;;;22.10;35.10;;;;;;6175174;27;83922;-56
2020/12/19 03:28:38;;;;;;;64.28;36.17;;;22.10;35.00;;;;;;6175326;28;83348;-55
2020/12/19 03:31:39;;;;;;;64.38;36.28;;;22.10;35.20;;;;;;6175622;27;90530;-53
2020/12/19 03:34:39;;;;;;;61.80;34.33;;;22.10;35.10;;;;;;6172818;28;85141;-54
2020/12/19 03:37:40;;;;;;;64.60;35.42;;;22.10;35.00;;;;;;6173978;28;83078;-56
2020/12/19 03:40:40;;;;;;;66.75;37.65;;;22.10;34.90;;;;;;6175060;28;83805;-55
2020/12/19 03:43:41;;;;;;;62.40;35.03;;;22.10;34.90;;;;;;6174438;28;84471;-52
2020/12/19 03:46:41;;;;;;;61.03;35.92;;;22.00;34.90;;;;;;6171281;28;83370;-56
2020/12/19 03:49:42;;;;;;;63.10;36.92;;;22.00;34.80;;;;;;6175195;28;83500;-54
2020/12/19 03:52:42;;;;;;;60.83;36.50;;;22.00;34.60;;;;;;6173411;27;83418;-54
2020/12/19 03:55:43;;;;;;;59.95;34.90;;;22.00;34.50;;;;;;6174077;28;90482;-46
2020/12/19 03:58:43;;;;;;;67.28;36.42;;;22.00;34.60;;;;;;6179698;27;83075;-52
2020/12/19 04:01:44;;;;;;;60.55;35.42;;;22.00;34.70;;;;;;6161814;28;84109;-53
2020/12/19 04:04:44;;;;;;;65.03;36.65;;;22.00;34.70;;;;;;6175398;27;83265;-54
2020/12/19 04:07:45;;;;;;;65.28;37.05;;;22.00;34.60;;;;;;6163083;28;83416;-54
2020/12/19 04:10:45;;;;;;;63.45;36.00;;;22.00;34.60;;;;;;6177651;27;83493;-53
2020/12/19 04:13:46;;;;;;;69.10;37.95;;;22.00;34.30;;;;;;6178722;28;83467;-51
2020/12/19 04:16:46;;;;;;;61.35;35.15;;;22.00;34.30;;;;;;6176981;28;83251;-54
2020/12/19 04:19:47;;;;;;;59.10;35.15;;;22.00;34.20;;;;;;6183249;28;83120;-55
2020/12/19 04:22:47;;;;;;;60.55;35.80;;;22.00;34.20;;;;;;6173530;28;84564;-53
2020/12/19 04:25:48;;;;;;;63.42;36.20;;;22.00;34.00;;;;;;6175188;28;84441;-52
2020/12/19 04:28:48;;;;;;;65.20;36.90;;;22.00;34.10;;;;;;6178917;28;83527;-56
2020/12/19 04:31:49;;;;;;;66.60;35.53;;;22.00;34.10;;;;;;6177317;28;83542;-55
2020/12/19 04:34:49;;;;;;;68.53;37.38;;;22.00;34.10;;;;;;6177247;28;82992;-55
2020/12/19 04:37:50;;;;;;;67.05;37.00;;;22.00;34.10;;;;;;6178226;27;83635;-55
2020/12/19 04:40:50;;;;;;;61.78;35.40;;;22.00;34.00;;;;;;6177063;28;83165;-55
2020/12/19 04:43:51;;;;;;;64.55;36.90;;;22.00;34.10;;;;;;6175664;28;85994;-55
2020/12/19 04:46:51;;;;;;;63.92;36.92;;;22.00;34.20;;;;;;6176388;28;83379;-46
2020/12/19 04:49:52;;;;;;;64.72;35.83;;;22.00;34.30;;;;;;6138042;28;88534;-54
2020/12/19 04:52:52;;;;;;;62.13;35.33;;;22.00;34.50;;;;;;6159854;28;83785;-54
2020/12/19 04:55:53;;;;;;;61.40;34.47;;;22.00;34.80;;;;;;6176114;27;83653;-53
2020/12/19 04:58:53;;;;;;;60.03;34.90;;;22.00;35.10;;;;;;6176961;28;83694;-50
2020/12/19 05:01:54;;;;;;;62.30;33.78;;;22.10;34.40;;;;;;6176999;28;83694;-52
2020/12/19 05:04:54;;;;;;;62.75;36.03;;;22.10;34.70;;;;;;6177461;28;83445;-54
2020/12/19 05:07:55;;;;;;;60.50;32.75;;;22.20;34.40;;;;;;6175175;28;83648;-53
2020/12/19 05:10:56;;;;;;;66.78;36.67;;;22.30;34.50;;;;;;6175630;27;84065;-52
2020/12/19 05:13:56;;;;;;;66.13;36.75;;;22.30;33.80;;;;;;6175685;28;86356;-54
2020/12/19 05:16:56;;;;;;;62.00;36.22;;;22.30;33.60;;;;;;6177780;27;83490;-53
2020/12/19 05:19:57;;;;;;;61.28;36.10;;;22.40;33.30;;;;;;6173954;28;83554;-54
2020/12/19 05:22:58;;;;;;;69.93;37.42;;;22.40;33.30;;;;;;6167778;27;83397;-53
2020/12/19 05:25:58;;;;;;;68.40;37.47;;;22.40;32.70;;;;;;6168629;28;85521;-57
2020/12/19 05:28:59;;;;;;;67.68;38.53;;;22.50;32.90;;;;;;6150502;28;83183;-55
2020/12/19 05:31:59;;;;;;;64.20;36.85;;;22.50;32.50;;;;;;6149788;28;83489;-53
2020/12/19 05:35:00;;;;;;;63.83;36.65;;;22.50;32.80;;;;;;6173159;28;83006;-54
2020/12/19 05:38:00;;;;;;;62.75;38.13;;;22.50;32.70;;;;;;6177475;28;83427;-54
2020/12/19 05:41:01;;;;;;;64.20;37.22;;;22.50;32.70;;;;;;6178470;28;84257;-53
2020/12/19 05:44:01;;;;;;;63.78;36.08;;;22.60;33.30;;;;;;6139243;28;88981;-53
2020/12/19 05:47:02;;;;;;;62.90;35.47;;;22.60;33.10;;;;;;6153268;28;84024;-54
2020/12/19 05:50:02;;;;;;;59.80;33.28;;;22.60;33.30;;;;;;6151630;28;85305;-54
2020/12/19 05:53:03;;;;;;;61.85;34.53;;;22.60;33.10;;;;;;6145920;28;82934;-54
2020/12/19 05:56:08;;;;;;;62.50;36.55;;;22.60;33.30;;;;;;6149838;28;83924;-52
2020/12/19 05:59:08;;;;;;;58.05;33.05;;;22.60;33.70;;;;;;6150945;28;82961;-53
2020/12/19 06:02:09;;;;;;;61.75;34.55;;;22.60;33.10;;;;;;6176384;28;83448;-55
2020/12/19 06:05:09;;;;;;;58.88;33.42;;;22.60;33.50;;;;;;6172590;28;83347;-53
2020/12/19 06:08:10;;;;;;;60.30;34.55;;;22.60;33.20;;;;;;6173422;27;83699;-55
2020/12/19 06:11:10;;;;;;;57.88;33.95;;;22.70;33.30;;;;;;6171506;28;83198;-57
2020/12/19 06:14:11;;;;;;;50.10;28.95;;;22.70;33.70;;;;;;6176519;28;83599;-51
2020/12/19 06:17:11;;;;;;;44.90;26.75;;;22.70;34.80;;;;;;6175342;28;88763;-50
2020/12/19 06:20:12;;;;;;;36.88;22.02;;;22.70;35.50;;;;;;6175534;28;83527;-52
2020/12/19 06:23:12;;;;;;;38.53;21.80;;;22.70;36.60;;;;;;6171210;28;83197;-53
2020/12/19 06:26:13;;;;;;;35.72;19.20;;;22.70;37.90;;;;;;6175316;27;83758;-48
2020/12/19 06:29:13;;;;;;;30.00;18.23;;;22.70;37.80;;;;;;6174064;28;84419;-53
2020/12/19 06:32:14;;;;;;;30.73;17.35;;;22.70;38.30;;;;;;6176249;27;83316;-51
2020/12/19 06:35:14;;;;;;;27.05;16.35;;;22.70;38.40;;;;;;6174298;28;83724;-52
2020/12/19 06:38:15;;;;;;;30.55;16.25;;;22.70;39.20;;;;;;6173349;28;83523;-50
2020/12/19 06:41:15;;;;;;;27.95;16.65;;;22.70;39.50;;;;;;6156980;28;86062;-50
2020/12/19 06:44:16;;;;;;;26.45;15.55;;;22.70;39.70;;;;;;6175170;27;83399;-50
2020/12/19 06:47:16;;;;;;;26.55;16.42;;;22.70;40.00;;;;;;6174038;28;89353;-51
2020/12/19 06:50:17;;;;;;;28.92;15.52;;;22.70;40.50;;;;;;6149201;27;83703;-47
2020/12/19 06:53:17;;;;;;;28.88;17.30;;;22.70;41.10;;;;;;6173443;28;83764;-47
2020/12/19 06:56:18;;;;;;;27.95;14.60;;;22.70;41.50;;;;;;6173749;28;83294;-47
2020/12/19 06:59:18;;;;;;;24.08;13.52;;;22.70;42.30;;;;;;6174846;28;83104;-47
2020/12/19 07:02:19;;;;;;;25.45;15.52;;;22.70;42.70;;;;;;6174854;28;83035;-48
2020/12/19 07:05:20;;;;;;;24.70;13.95;;;22.70;43.60;;;;;;6173209;28;84667;-48
2020/12/19 07:08:20;;;;;;;25.25;14.35;;;22.70;43.50;;;;;;6174445;27;82934;-47
2020/12/19 07:11:21;;;;;;;22.35;14.00;;;22.60;43.60;;;;;;6173756;28;83470;-47
2020/12/19 07:14:21;;;;;;;25.27;14.20;;;22.60;44.20;;;;;;6172624;28;93964;-50
2020/12/19 07:17:22;;;;;;;24.67;13.77;;;22.60;43.80;;;;;;6161239;27;83391;-48
2020/12/19 07:20:23;;;;;;;24.45;13.98;;;22.60;44.10;;;;;;6174756;28;83344;-48
2020/12/19 07:23:23;;;;;;;24.05;13.45;;;22.60;44.30;;;;;;6172928;27;83479;-50
2020/12/19 07:26:24;;;;;;;23.63;13.65;;;22.60;44.30;;;;;;6171121;28;83962;-47
2020/12/19 07:29:24;;;;;;;25.80;14.60;;;22.60;44.40;;;;;;6169533;28;83078;-47
2020/12/19 07:32:25;;;;;;;24.77;14.77;;;22.60;44.30;;;;;;6173964;28;83190;-47
2020/12/19 07:35:25;;;;;;;25.30;14.57;;;22.50;43.90;;;;;;6179387;28;85878;-55
2020/12/19 07:38:26;;;;;;;24.38;15.23;;;22.50;43.70;;;;;;6177805;28;83350;-48
2020/12/19 07:41:26;;;;;;;24.92;15.02;;;22.50;43.60;;;;;;6175767;28;83243;-47
2020/12/19 07:44:27;;;;;;;27.10;16.00;;;22.50;43.50;;;;;;6181739;28;84265;-50
2020/12/19 07:47:27;;;;;;;30.15;16.02;;;22.60;43.10;;;;;;6181433;28;83840;-51
2020/12/19 07:50:28;;;;;;;32.22;19.92;;;22.60;42.40;;;;;;6181662;28;83088;-49
2020/12/19 07:53:28;;;;;;;65.63;30.80;;;22.60;42.00;;;;;;6180466;28;84052;-48
2020/12/19 07:56:29;;;;;;;189.60;73.40;;;22.60;41.50;;;;;;6156899;27;83457;-51
2020/12/19 07:59:29;;;;;;;267.27;111.55;;;22.60;40.70;;;;;;6175737;28;83362;-51
2020/12/19 08:02:30;;;;;;;417.10;164.73;;;22.70;40.40;;;;;;6176915;28;85651;-51
2020/12/19 08:05:30;;;;;;;406.98;161.38;;;22.70;39.70;;;;;;6177771;28;85534;-49
2020/12/19 08:08:31;;;;;;;639.63;260.25;;;22.70;39.70;;;;;;6177545;27;85264;-50
2020/12/19 08:11:31;;;;;;;724.92;308.13;;;22.70;39.30;;;;;;6172014;28;86618;-49
2020/12/19 08:14:32;;;;;;;865.17;360.83;;;22.70;39.00;;;;;;6176208;28;85576;-52
2020/12/19 08:17:32;;;;;;;942.45;404.83;;;22.70;38.60;;;;;;6175915;28;85494;-51
2020/12/19 08:20:33;;;;;;;976.08;401.38;;;22.70;38.50;;;;;;6175202;27;85370;-49
2020/12/19 08:23:34;;;;;;;977.47;410.88;;;22.70;38.10;;;;;;6171058;28;86178;-50
2020/12/19 08:26:34;;;;;;;901.50;373.80;;;22.70;38.00;;;;;;6139037;28;88385;-49
2020/12/19 08:29:35;;;;;;;795.55;331.80;;;22.60;37.60;;;;;;6179511;28;85802;-48
2020/12/19 08:32:35;;;;;;;766.45;317.75;;;22.60;37.70;;;;;;6171367;28;85841;-49
2020/12/19 08:35:36;;;;;;;679.42;275.45;;;22.60;36.90;;;;;;6154298;28;85429;-47
2020/12/19 08:38:36;;;;;;;609.33;242.93;;;22.60;37.00;;;;;;6173994;28;87659;-49
2020/12/19 08:41:37;;;;;;;573.42;222.82;;;22.60;36.80;;;;;;6170787;28;86210;-50
2020/12/19 08:44:37;;;;;;;519.80;194.75;;;22.60;36.80;;;;;;6175273;28;86024;-52
2020/12/19 08:47:38;;;;;;;478.67;174.07;;;22.60;36.50;;;;;;6171651;27;85491;-49
2020/12/19 08:50:38;;;;;;;432.13;159.25;;;22.50;36.60;;;;;;6171932;28;86051;-49
2020/12/19 08:53:39;;;;;;;406.50;153.35;;;22.50;36.70;;;;;;6169543;28;85577;-51
2020/12/19 08:56:39;;;;;;;398.40;141.45;;;22.50;36.80;;;;;;6169894;28;86221;-51
2020/12/19 08:59:40;;;;;;;360.35;138.68;;;22.50;37.00;;;;;;6171373;28;85440;-49
2020/12/19 09:02:40;;;;;;;344.25;129.98;;;22.50;37.30;;;;;;6161206;28;87786;-50
2020/12/19 09:05:44;;;;;;;345.05;131.85;;;22.50;37.70;;;;;;6170249;28;86406;-50
2020/12/19 09:08:45;;;;;;;314.33;122.70;;;22.60;38.40;;;;;;6159289;28;89249;-48
2020/12/19 09:11:45;;;;;;;303.60;113.60;;;22.60;40.10;;;;;;6171260;28;85463;-49
2020/12/19 09:14:46;;;;;;;276.23;108.40;;;22.70;39.70;;;;;;6168525;28;86474;-49
2020/12/19 09:17:46;;;;;;;240.18;100.85;;;22.80;41.00;;;;;;6171621;28;86836;-51
2020/12/19 09:20:47;;;;;;;228.18;93.72;;;22.90;39.80;;;;;;6169415;28;85416;-53
2020/12/19 09:23:47;;;;;;;236.65;92.63;;;23.00;39.30;;;;;;6174770;28;84188;-49
2020/12/19 09:26:48;;;;;;;219.65;89.53;;;23.10;38.70;;;;;;6172203;28;82877;-52
2020/12/19 09:29:48;;;;;;;210.60;83.18;;;23.20;38.70;;;;;;6174059;28;85082;-52
2020/12/19 09:32:49;;;;;;;185.75;78.60;;;23.20;38.30;;;;;;6165221;28;83533;-50
2020/12/19 09:35:50;;;;;;;183.52;71.47;;;23.30;38.00;;;;;;6149665;28;83107;-54
2020/12/19 09:38:50;;;;;;;169.45;72.70;;;23.30;37.90;;;;;;6149311;28;83342;-51
2020/12/19 09:41:51;;;;;;;165.30;69.35;;;23.30;37.60;;;;;;6147493;28;84993;-51
2020/12/19 09:44:51;;;;;;;159.23;68.60;;;23.40;37.50;;;;;;6149334;28;83442;-49
2020/12/19 09:47:52;;;;;;;144.90;62.17;;;23.40;37.00;;;;;;6151196;28;83708;-49
2020/12/19 09:50:52;;;;;;;136.23;59.40;;;23.50;37.20;;;;;;6148840;28;83594;-48
2020/12/19 09:53:53;;;;;;;133.98;59.85;;;23.50;36.90;;;;;;6147563;28;84486;-50
2020/12/19 09:56:53;;;;;;;136.63;59.90;;;23.50;36.90;;;;;;6180005;28;83404;-52
2020/12/19 09:59:54;;;;;;;128.75;55.38;;;23.50;36.70;;;;;;6176665;27;83521;-51
2020/12/19 10:02:54;;;;;;;117.40;54.15;;;23.50;36.10;;;;;;6173174;28;84346;-52
2020/12/19 10:05:55;;;;;;;118.70;52.33;;;23.50;36.30;;;;;;6176475;28;83445;-48
2020/12/19 10:08:55;;;;;;;103.57;49.10;;;23.50;37.00;;;;;;6177703;28;83054;-49
2020/12/19 10:11:56;;;;;;;106.68;48.83;;;23.50;36.60;;;;;;6185133;28;83572;-51
2020/12/19 10:14:57;;;;;;;102.88;47.33;;;23.50;36.70;;;;;;6184139;28;83949;-50
2020/12/19 10:17:57;;;;;;;93.78;43.03;;;23.50;36.80;;;;;;6173927;28;83260;-47
2020/12/19 10:20:57;;;;;;;92.45;43.25;;;23.50;36.90;;;;;;6125990;27;85983;-47
2020/12/19 10:23:58;;;;;;;87.57;40.25;;;23.50;37.40;;;;;;6148825;28;84054;-47
2020/12/19 10:26:59;;;;;;;91.15;45.33;;;23.50;37.80;;;;;;6157870;28;83665;-47
2020/12/19 10:29:59;;;;;;;82.43;38.17;;;23.50;37.40;;;;;;6175671;28;83041;-46
2020/12/19 10:33:00;;;;;;;78.45;38.75;;;23.50;37.70;;;;;;6157216;28;83468;-49
2020/12/19 10:36:00;;;;;;;80.20;39.00;;;23.40;37.50;;;;;;6173356;28;84092;-48
2020/12/19 10:39:01;;;;;;;75.72;37.90;;;23.40;37.70;;;;;;6151425;27;83384;-49
2020/12/19 10:42:01;;;;;;;80.68;38.83;;;23.40;37.70;;;;;;6161850;28;83349;-49
2020/12/19 10:45:02;;;;;;;77.75;37.88;;;23.40;38.50;;;;;;6159543;28;83671;-47
2020/12/19 10:48:02;;;;;;;72.22;36.28;;;23.40;38.50;;;;;;6160321;28;84310;-49
2020/12/19 10:51:03;;;;;;;67.88;34.97;;;23.30;38.20;;;;;;6166878;28;83868;-48
2020/12/19 10:54:03;;;;;;;70.88;35.28;;;23.30;37.70;;;;;;6174821;28;84266;-50
2020/12/19 10:57:04;;;;;;;65.63;35.63;;;23.30;38.20;;;;;;6174212;27;84009;-48
2020/12/19 11:00:04;;;;;;;65.88;34.50;;;23.30;37.50;;;;;;6162485;28;83153;-47
2020/12/19 11:03:05;;;;;;;62.60;34.03;;;23.40;38.30;;;;;;6149622;28;83931;-49
2020/12/19 11:06:05;;;;;;;64.45;33.08;;;23.30;38.40;;;;;;6154866;28;83098;-51
2020/12/19 11:09:06;;;;;;;66.28;34.10;;;23.30;38.40;;;;;;6174436;28;83706;-50
2020/12/19 11:12:06;;;;;;;66.05;34.75;;;23.30;39.10;;;;;;6174404;28;83812;-48
2020/12/19 11:15:07;;;;;;;61.33;33.13;;;23.30;39.50;;;;;;6172901;28;86227;-48
2020/12/19 11:18:07;;;;;;;58.25;31.23;;;23.20;40.30;;;;;;6175471;28;83648;-46
2020/12/19 11:21:08;;;;;;;58.20;33.25;;;23.20;40.90;;;;;;6173905;28;83737;-49
2020/12/19 11:24:08;;;;;;;62.33;31.65;;;23.20;40.20;;;;;;6174467;27;83573;-46
2020/12/19 11:27:09;;;;;;;55.53;30.42;;;23.20;41.30;;;;;;6173419;28;83481;-47
2020/12/19 11:30:09;;;;;;;58.97;33.08;;;23.30;41.80;;;;;;6167282;28;84283;-48
2020/12/19 11:33:10;;;;;;;52.55;31.08;;;23.30;43.20;;;;;;6173007;28;85560;-49
2020/12/19 11:36:11;;;;;;;58.08;32.53;;;23.30;43.10;;;;;;6172810;28;83322;-47
2020/12/19 11:39:11;;;;;;;57.42;31.17;;;23.40;44.30;;;;;;6170670;28;84283;-50
2020/12/19 11:42:13;;;;;;;57.97;30.00;;;23.40;44.10;;;;;;6174840;28;82818;-51
2020/12/19 11:45:13;;;;;;;54.30;31.25;;;23.40;44.60;;;;;;6172918;27;83990;-50
2020/12/19 11:48:14;;;;;;;53.67;29.52;;;23.40;44.10;;;;;;6174684;28;83310;-47
2020/12/19 11:51:14;;;;;;;52.95;30.67;;;23.30;44.00;;;;;;6172165;28;84158;-47
2020/12/19 11:54:15;;;;;;;54.60;30.85;;;23.30;44.60;;;;;;6174343;28;83007;-50
2020/12/19 11:57:15;;;;;;;51.03;28.02;;;23.40;44.40;;;;;;6174188;28;84040;-48
2020/12/19 12:00:16;;;;;;;50.38;28.95;;;23.40;44.70;;;;;;6173270;28;83309;-48
2020/12/19 12:03:16;;;;;;;50.17;30.08;;;23.40;45.50;;;;;;6171965;27;83942;-51
2020/12/19 12:06:17;;;;;;;44.88;27.80;;;23.40;46.10;;;;;;6155794;28;84012;-51
2020/12/19 12:09:17;;;;;;;46.78;27.02;;;23.40;45.80;;;;;;6173339;27;83801;-52
2020/12/19 12:12:18;;;;;;;47.30;27.35;;;23.30;44.80;;;;;;6183210;28;83991;-49
2020/12/19 12:15:18;;;;;;;42.53;26.25;;;23.30;44.60;;;;;;6163338;28;84227;-48
2020/12/19 12:18:19;;;;;;;44.00;26.02;;;23.30;44.50;;;;;;6173200;28;83949;-48
2020/12/19 12:21:19;;;;;;;44.72;27.48;;;23.30;45.30;;;;;;6191948;28;83253;-49
2020/12/19 12:24:20;;;;;;;43.05;26.17;;;23.30;45.60;;;;;;6188824;28;82884;-47
2020/12/19 12:27:22;;;;;;;41.95;25.80;;;23.30;45.60;;;;;;6176065;27;84068;-50
2020/12/19 12:30:23;;;;;;;46.42;27.25;;;23.30;45.50;;;;;;6191864;28;83456;-52
2020/12/19 12:33:24;;;;;;;43.92;26.88;;;23.30;47.40;;;;;;6174388;28;84674;-52
2020/12/19 12:36:24;;;;;;;47.40;25.77;;;23.30;46.30;;;;;;6174865;28;83863;-55
2020/12/19 12:39:25;;;;;;;39.92;23.75;;;23.30;46.70;;;;;;6174896;28;84095;-52
2020/12/19 12:42:25;;;;;;;41.35;23.55;;;23.30;46.30;;;;;;6171800;28;83680;-52
2020/12/19 12:45:26;;;;;;;34.40;22.15;;;23.30;44.80;;;;;;6172797;27;83757;-52
2020/12/19 12:48:26;;;;;;;36.22;23.17;;;23.30;44.80;;;;;;6171968;28;83519;-55
2020/12/19 12:51:27;;;;;;;37.33;23.13;;;23.30;43.20;;;;;;6174544;27;85460;-53
2020/12/19 12:54:28;;;;;;;38.85;22.88;;;23.30;42.60;;;;;;6174696;28;83274;-53
2020/12/19 12:57:28;;;;;;;38.10;21.65;;;23.30;42.40;;;;;;6168957;27;84862;-53
2020/12/19 13:00:29;;;;;;;37.95;22.88;;;23.20;41.80;;;;;;6161354;28;83519;-55
2020/12/19 13:03:29;;;;;;;35.20;20.65;;;23.20;41.30;;;;;;6162531;28;83878;-53
2020/12/19 13:06:30;;;;;;;35.55;21.65;;;23.10;41.10;;;;;;6173630;28;83409;-55
2020/12/19 13:09:30;;;;;;;33.33;20.83;;;23.10;40.40;;;;;;6168858;28;83815;-55
2020/12/19 13:12:31;;;;;;;38.15;22.25;;;23.20;40.10;;;;;;6174039;27;84484;-53
2020/12/19 13:15:32;;;;;;;35.88;21.40;;;23.10;39.80;;;;;;6158821;28;83536;-53
2020/12/19 13:18:32;;;;;;;32.55;21.25;;;23.10;39.90;;;;;;6163533;28;87169;-56
2020/12/19 13:21:33;;;;;;;32.78;21.05;;;23.10;39.50;;;;;;6159786;28;84377;-55
2020/12/19 13:24:36;;;;;;;34.95;22.10;;;23.20;39.10;;;;;;6163871;28;83908;-56
2020/12/19 13:27:37;;;;;;;38.50;21.73;;;23.20;38.60;;;;;;6168212;28;84219;-56
2020/12/19 13:30:38;;;;;;;36.55;22.50;;;23.30;38.10;;;;;;6175072;28;83504;-53
2020/12/19 13:33:39;;;;;;;33.05;21.67;;;23.30;37.70;;;;;;6174076;28;83362;-53
2020/12/19 13:36:39;;;;;;;37.55;23.02;;;23.30;37.30;;;;;;6172867;28;84965;-57
2020/12/19 13:39:40;;;;;;;35.13;21.90;;;23.40;37.10;;;;;;6172397;27;83199;-52
2020/12/19 13:42:40;;;;;;;32.15;21.65;;;23.40;36.80;;;;;;6172876;28;83275;-53
2020/12/19 13:45:41;;;;;;;36.17;21.85;;;23.40;36.50;;;;;;6147954;27;82872;-54
2020/12/19 13:48:41;;;;;;;37.05;22.80;;;23.50;36.30;;;;;;6175144;28;83510;-53
2020/12/19 13:51:42;;;;;;;34.42;20.83;;;23.50;36.40;;;;;;6173699;28;90831;-53
2020/12/19 13:54:42;;;;;;;34.50;20.13;;;23.50;36.40;;;;;;6172757;28;84045;-52
2020/12/19 13:57:43;;;;;;;35.28;21.45;;;23.50;36.30;;;;;;6173774;28;83326;-57
2020/12/19 14:00:43;;;;;;;30.88;19.83;;;23.50;36.00;;;;;;6173468;28;84782;-51
2020/12/19 14:03:44;;;;;;;32.38;21.30;;;23.50;36.00;;;;;;6167811;28;82888;-55
2020/12/19 14:06:44;;;;;;;36.20;22.13;;;23.50;35.80;;;;;;6173905;28;83447;-54
2020/12/19 14:09:45;;;;;;;35.42;21.77;;;23.50;35.70;;;;;;6152354;28;83454;-54
2020/12/19 14:12:45;;;;;;;34.78;22.13;;;23.50;35.30;;;;;;6172988;28;83662;-53
2020/12/19 14:15:46;;;;;;;38.13;23.05;;;23.50;35.20;;;;;;6144678;28;83409;-55
2020/12/19 14:18:46;;;;;;;33.20;20.95;;;23.50;35.00;;;;;;6171569;28;83957;-55
2020/12/19 14:21:47;;;;;;;33.03;21.05;;;23.50;34.80;;;;;;6158963;28;83486;-56
2020/12/19 14:24:47;;;;;;;32.05;20.80;;;23.50;35.20;;;;;;6161085;28;83299;-55
2020/12/19 14:27:48;;;;;;;37.28;21.52;;;23.50;35.40;;;;;;6171098;28;84515;-57
2020/12/19 14:30:48;;;;;;;33.13;20.90;;;23.50;36.20;;;;;;6172447;28;84433;-57
2020/12/19 14:33:49;;;;;;;32.20;19.70;;;23.50;36.80;;;;;;6173015;28;87098;-53
2020/12/19 14:36:49;;;;;;;32.40;19.55;;;23.50;37.10;;;;;;6173572;27;83074;-56
2020/12/19 14:39:50;;;;;;;33.15;20.10;;;23.50;37.30;;;;;;6172270;28;83814;-55
2020/12/19 14:42:50;;;;;;;38.58;20.67;;;23.50;38.60;;;;;;6171894;28;83591;-55
2020/12/19 14:45:51;;;;;;;34.88;20.08;;;23.50;39.00;;;;;;6173307;28;83361;-55
2020/12/19 14:48:54;;;;;;;32.17;20.02;;;23.50;40.20;;;;;;6174414;28;83510;-55
2020/12/19 14:51:55;;;;;;;32.22;20.50;;;23.50;40.60;;;;;;6173126;28;83422;-51
2020/12/19 14:54:55;;;;;;;36.30;21.08;;;23.50;38.90;;;;;;6172776;28;83417;-53
2020/12/19 14:57:56;;;;;;;30.85;19.58;;;23.50;39.00;;;;;;6174137;28;82987;-56
2020/12/19 15:00:56;;;;;;;33.85;20.67;;;23.50;40.40;;;;;;6173591;27;84219;-57
2020/12/19 15:03:57;;;;;;;32.63;20.80;;;23.50;40.30;;;;;;6174290;28;83495;-55
2020/12/19 15:06:57;;;;;;;34.65;20.70;;;23.50;40.10;;;;;;6174847;28;83405;-57
2020/12/19 15:09:58;;;;;;;29.98;19.45;;;23.50;40.40;;;;;;6174922;28;83633;-56
2020/12/19 15:12:58;;;;;;;32.63;20.00;;;23.40;40.40;;;;;;6175619;28;83379;-53